Albany, Minnesota
Current Conditions -  °F | °C
As of 1:33 AM on Thursday 23 Oct 2014 (Local Time) from KD39 Reporting Station
Haze Haze  
Wind Chill: 52°   Ceiling: 5000
Heat Index: 52°   Visibility: 5mi
Dew Point: 52°   Wind: 5mph
Humidity: 98%   Direction: 170°S
Pressure: 29.95"   Gusts: NA
Location:  45.63°N, 94.57°W
Report Text: KD39 230633Z AUTO 17004KT 5SM BR SCT038 BKN050 OVC060 11/11 A2995 RMK AO2 T01130110
Loading
Personal Weather Stations






























Interactive Weather Map
Tropical Storm Tracking
New forecast layout! Learn more

10-Day Weather Forecast

Advertisements
Track Severe Weather on mobile